TimeEDT,TemperatureF,Dew PointF,Humidity,Sea Level PressureIn,VisibilityMPH,Wind Direction,Wind SpeedMPH,Gust SpeedMPH,PrecipitationIn,Events,Conditions,WindDirDegrees,DateUTC
12:34 AM,59.0,57.2,94,29.87,10.0,North,5.8,-,0.01,Rain,Light Rain,350,2013-06-19 04:34:00
12:42 AM,59.0,57.2,94,29.86,10.0,North,5.8,-,0.01,Rain,Light Rain,360,2013-06-19 04:42:00
12:53 AM,59.0,57.0,93,29.87,10.0,North,6.9,-,0.01,Rain,Light Rain,360,2013-06-19 04:53:00
1:53 AM,59.0,57.0,93,29.86,10.0,Variable,5.8,-,0.01,Rain,Light Rain,0,2013-06-19 05:53:00
2:01 AM,57.2,57.2,100,29.86,10.0,North,8.1,-,0.00,Rain,Light Rain,360,2013-06-19 06:01:00
2:18 AM,57.2,55.4,94,29.86,10.0,North,6.9,-,0.00,Rain,Light Rain,360,2013-06-19 06:18:00
2:53 AM,57.9,55.9,93,29.87,10.0,North,8.1,-,0.00,,Overcast,360,2013-06-19 06:53:00
3:53 AM,57.9,55.9,93,29.87,10.0,Variable,6.9,-,0.00,,Overcast,0,2013-06-19 07:53:00
4:53 AM,57.9,55.0,90,29.87,10.0,NNE,4.6,-,N/A,,Overcast,20,2013-06-19 08:53:00
5:53 AM,57.9,55.0,90,29.88,10.0,North,9.2,-,N/A,,Overcast,10,2013-06-19 09:53:00
6:53 AM,57.9,54.0,87,29.91,10.0,North,6.9,-,N/A,,Scattered Clouds,360,2013-06-19 10:53:00
7:53 AM,61.0,53.1,75,29.94,10.0,Variable,6.9,-,N/A,,Clear,0,2013-06-19 11:53:00
8:53 AM,64.0,54.0,70,29.95,10.0,NNE,10.4,-,N/A,,Clear,30,2013-06-19 12:53:00
9:53 AM,66.9,54.0,63,29.97,10.0,North,8.1,-,N/A,,Partly Cloudy,360,2013-06-19 13:53:00
10:53 AM,70.0,53.1,55,29.99,10.0,Variable,6.9,-,N/A,,Scattered Clouds,0,2013-06-19 14:53:00
11:53 AM,71.1,53.1,53,29.98,10.0,NNE,12.7,19.6,N/A,,Partly Cloudy,30,2013-06-19 15:53:00
12:53 PM,71.1,50.0,47,29.99,10.0,NNE,11.5,17.3,N/A,,Scattered Clouds,20,2013-06-19 16:53:00
1:53 PM,73.9,50.0,43,30.00,10.0,NE,9.2,16.1,N/A,,Partly Cloudy,40,2013-06-19 17:53:00
2:53 PM,73.9,48.0,40,30.01,10.0,NE,8.1,16.1,N/A,,Clear,40,2013-06-19 18:53:00
3:53 PM,72.0,48.0,43,30.02,10.0,NE,3.5,-,N/A,,Mostly Cloudy,50,2013-06-19 19:53:00
4:53 PM,72.0,48.0,43,30.03,10.0,ENE,10.4,-,N/A,,Partly Cloudy,60,2013-06-19 20:53:00
5:53 PM,71.1,46.9,42,30.03,10.0,ENE,8.1,-,N/A,,Clear,60,2013-06-19 21:53:00
6:53 PM,69.1,46.0,44,30.06,10.0,East,4.6,-,N/A,,Clear,100,2013-06-19 22:53:00
7:53 PM,64.9,46.9,52,30.08,10.0,SSE,4.6,-,N/A,,Clear,150,2013-06-19 23:53:00
8:53 PM,61.0,54.0,78,30.10,10.0,SW,3.5,-,N/A,,Clear,220,2013-06-20 00:53:00
9:53 PM,60.1,55.0,83,30.13,10.0,SW,3.5,-,N/A,,Mostly Cloudy,230,2013-06-20 01:53:00
10:53 PM,59.0,55.0,87,30.14,10.0,Calm,Calm,-,N/A,,Clear,0,2013-06-20 02:53:00
11:53 PM,57.9,55.0,90,30.15,10.0,Calm,Calm,-,N/A,,Clear,0,2013-06-20 03:53:00